sensor_id;sensor_type;location;lat;lon;timestamp;pressure;altitude;pressure_sealevel;temperature;humidity
60646;BME280;46462;32.608;-117.032;2023-02-24T00:01:47;99528.15;;;24.67;29.36
60646;BME280;46462;32.608;-117.032;2023-02-24T00:04:15;99529.73;;;24.68;29.55
60646;BME280;46462;32.608;-117.032;2023-02-24T00:06:47;99532.42;;;24.44;30.04
60646;BME280;46462;32.608;-117.032;2023-02-24T00:09:19;99533.44;;;24.50;30.06
60646;BME280;46462;32.608;-117.032;2023-02-24T00:11:52;99530.14;;;24.69;30.41
60646;BME280;46462;32.608;-117.032;2023-02-24T00:14:18;99528.15;;;24.64;30.00
60646;BME280;46462;32.608;-117.032;2023-02-24T00:16:49;99526.04;;;24.59;29.74
60646;BME280;46462;32.608;-117.032;2023-02-24T00:19:22;99525.14;;;24.34;30.28
60646;BME280;46462;32.608;-117.032;2023-02-24T00:21:51;99531.08;;;24.59;29.91
60646;BME280;46462;32.608;-117.032;2023-02-24T00:24:22;99532.57;;;24.73;29.70
60646;BME280;46462;32.608;-117.032;2023-02-24T00:26:53;99531.62;;;24.73;29.26
60646;BME280;46462;32.608;-117.032;2023-02-24T00:29:24;99529.98;;;24.51;29.53
60646;BME280;46462;32.608;-117.032;2023-02-24T00:31:55;99528.07;;;24.40;29.88
60646;BME280;46462;32.608;-117.032;2023-02-24T00:34:24;99526.19;;;24.39;29.35
60646;BME280;46462;32.608;-117.032;2023-02-24T00:36:55;99527.53;;;24.34;29.23
60646;BME280;46462;32.608;-117.032;2023-02-24T00:39:26;99526.66;;;24.14;29.64
60646;BME280;46462;32.608;-117.032;2023-02-24T00:41:57;99530.99;;;23.94;29.56
60646;BME280;46462;32.608;-117.032;2023-02-24T00:44:27;99536.78;;;23.90;29.22
60646;BME280;46462;32.608;-117.032;2023-02-24T00:46:59;99535.76;;;23.87;29.43
60646;BME280;46462;32.608;-117.032;2023-02-24T00:49:29;99539.76;;;23.87;29.33
60646;BME280;46462;32.608;-117.032;2023-02-24T00:52:00;99542.72;;;23.75;29.53
60646;BME280;46462;32.608;-117.032;2023-02-24T00:54:33;99546.30;;;23.67;29.58
60646;BME280;46462;32.608;-117.032;2023-02-24T00:57:02;99545.67;;;23.42;29.88
60646;BME280;46462;32.608;-117.032;2023-02-24T00:59:33;99547.52;;;23.27;30.08
60646;BME280;46462;32.608;-117.032;2023-02-24T01:02:03;99551.44;;;23.27;30.39
60646;BME280;46462;32.608;-117.032;2023-02-24T01:04:34;99552.78;;;23.18;30.76
60646;BME280;46462;32.608;-117.032;2023-02-24T01:07:05;99555.01;;;23.05;30.83
60646;BME280;46462;32.608;-117.032;2023-02-24T01:09:37;99555.98;;;23.02;31.15
60646;BME280;46462;32.608;-117.032;2023-02-24T01:12:08;99553.66;;;22.99;31.26
60646;BME280;46462;32.608;-117.032;2023-02-24T01:14:37;99556.22;;;22.82;31.45
60646;BME280;46462;32.608;-117.032;2023-02-24T01:17:08;99559.42;;;22.63;31.80
60646;BME280;46462;32.608;-117.032;2023-02-24T01:19:38;99562.04;;;22.58;32.08
60646;BME280;46462;32.608;-117.032;2023-02-24T01:22:12;99563.58;;;22.49;32.22
60646;BME280;46462;32.608;-117.032;2023-02-24T01:24:41;99563.36;;;22.51;32.43
60646;BME280;46462;32.608;-117.032;2023-02-24T01:27:12;99562.14;;;22.27;32.82
60646;BME280;46462;32.608;-117.032;2023-02-24T01:29:41;99564.38;;;22.21;32.88
60646;BME280;46462;32.608;-117.032;2023-02-24T01:32:15;99566.83;;;22.30;32.90
60646;BME280;46462;32.608;-117.032;2023-02-24T01:34:43;99569.34;;;22.19;33.27
60646;BME280;46462;32.608;-117.032;2023-02-24T01:37:14;99566.85;;;22.36;32.94
60646;BME280;46462;32.608;-117.032;2023-02-24T01:39:45;99570.15;;;22.35;32.86
60646;BME280;46462;32.608;-117.032;2023-02-24T01:42:18;99571.75;;;22.28;32.96
60646;BME280;46462;32.608;-117.032;2023-02-24T01:47:20;99574.46;;;22.17;33.35
60646;BME280;46462;32.608;-117.032;2023-02-24T01:49:50;99578.29;;;22.16;33.41
60646;BME280;46462;32.608;-117.032;2023-02-24T01:52:20;99578.43;;;22.14;33.38
60646;BME280;46462;32.608;-117.032;2023-02-24T01:54:53;99584.06;;;21.91;33.81
60646;BME280;46462;32.608;-117.032;2023-02-24T01:57:22;99585.82;;;21.97;33.93
60646;BME280;46462;32.608;-117.032;2023-02-24T01:59:53;99588.85;;;22.05;33.92
60646;BME280;46462;32.608;-117.032;2023-02-24T02:02:22;99586.71;;;22.01;33.81
60646;BME280;46462;32.608;-117.032;2023-02-24T02:04:56;99586.93;;;21.95;34.15
60646;BME280;46462;32.608;-117.032;2023-02-24T02:07:26;99595.28;;;21.86;34.10
60646;BME280;46462;32.608;-117.032;2023-02-24T02:09:57;99594.90;;;21.81;34.23
60646;BME280;46462;32.608;-117.032;2023-02-24T02:12:26;99600.75;;;21.77;34.62
60646;BME280;46462;32.608;-117.032;2023-02-24T02:14:57;99603.63;;;21.77;34.34
60646;BME280;46462;32.608;-117.032;2023-02-24T02:17:32;99605.25;;;21.87;34.39
60646;BME280;46462;32.608;-117.032;2023-02-24T02:25:03;99607.70;;;21.57;34.62
60646;BME280;46462;32.608;-117.032;2023-02-24T02:30:10;99612.04;;;21.11;35.05
60646;BME280;46462;32.608;-117.032;2023-02-24T02:32:45;99618.24;;;21.09;35.00
60646;BME280;46462;32.608;-117.032;2023-02-24T02:35:05;99621.55;;;21.08;35.08
60646;BME280;46462;32.608;-117.032;2023-02-24T02:37:39;99624.06;;;20.98;35.19
60646;BME280;46462;32.608;-117.032;2023-02-24T02:40:11;99626.37;;;21.01;35.46
60646;BME280;46462;32.608;-117.032;2023-02-24T02:42:40;99629.68;;;21.07;35.40
60646;BME280;46462;32.608;-117.032;2023-02-24T02:45:11;99635.10;;;21.19;35.22
60646;BME280;46462;32.608;-117.032;2023-02-24T02:47:43;99632.96;;;21.23;34.98
60646;BME280;46462;32.608;-117.032;2023-02-24T02:50:14;99633.37;;;21.23;35.27
60646;BME280;46462;32.608;-117.032;2023-02-24T02:52:46;99632.72;;;21.19;35.19
60646;BME280;46462;32.608;-117.032;2023-02-24T02:55:13;99630.58;;;21.11;35.01
60646;BME280;46462;32.608;-117.032;2023-02-24T02:57:46;99633.19;;;21.00;35.49
60646;BME280;46462;32.608;-117.032;2023-02-24T03:00:15;99635.09;;;21.04;35.27
60646;BME280;46462;32.608;-117.032;2023-02-24T03:02:47;99640.40;;;21.01;35.53
60646;BME280;46462;32.608;-117.032;2023-02-24T03:05:17;99646.58;;;20.84;35.59
60646;BME280;46462;32.608;-117.032;2023-02-24T03:07:48;99646.97;;;20.56;36.12
60646;BME280;46462;32.608;-117.032;2023-02-24T03:10:18;99647.93;;;20.24;36.74
60646;BME280;46462;32.608;-117.032;2023-02-24T03:12:48;99651.70;;;20.23;37.07
60646;BME280;46462;32.608;-117.032;2023-02-24T03:15:17;99658.55;;;19.99;37.87
60646;BME280;46462;32.608;-117.032;2023-02-24T03:17:48;99656.95;;;19.77;38.72
60646;BME280;46462;32.608;-117.032;2023-02-24T03:20:20;99659.56;;;19.62;39.22
60646;BME280;46462;32.608;-117.032;2023-02-24T03:22:48;99665.33;;;19.81;38.86
60646;BME280;46462;32.608;-117.032;2023-02-24T03:25:17;99664.67;;;19.75;38.78
60646;BME280;46462;32.608;-117.032;2023-02-24T03:27:49;99669.54;;;19.51;39.07
60646;BME280;46462;32.608;-117.032;2023-02-24T03:30:18;99668.23;;;19.59;38.90
60646;BME280;46462;32.608;-117.032;2023-02-24T03:32:50;99677.92;;;19.93;38.42
60646;BME280;46462;32.608;-117.032;2023-02-24T03:35:18;99679.39;;;19.59;39.15
60646;BME280;46462;32.608;-117.032;2023-02-24T03:37:46;99680.94;;;19.37;39.84
60646;BME280;46462;32.608;-117.032;2023-02-24T03:40:16;99679.87;;;19.21;40.43
60646;BME280;46462;32.608;-117.032;2023-02-24T03:42:48;99680.88;;;19.19;40.54
60646;BME280;46462;32.608;-117.032;2023-02-24T03:45:17;99683.76;;;19.25;40.58
60646;BME280;46462;32.608;-117.032;2023-02-24T03:47:47;99684.40;;;19.31;40.60
60646;BME280;46462;32.608;-117.032;2023-02-24T03:50:18;99686.54;;;19.31;40.79
60646;BME280;46462;32.608;-117.032;2023-02-24T03:52:54;99682.43;;;19.13;41.19
60646;BME280;46462;32.608;-117.032;2023-02-24T03:55:24;99678.34;;;18.94;41.62
60646;BME280;46462;32.608;-117.032;2023-02-24T03:57:57;99675.18;;;18.87;42.04
60646;BME280;46462;32.608;-117.032;2023-02-24T04:00:22;99672.89;;;18.64;42.71
60646;BME280;46462;32.608;-117.032;2023-02-24T04:02:52;99684.82;;;19.00;42.03
60646;BME280;46462;32.608;-117.032;2023-02-24T04:05:20;99691.23;;;19.15;41.75
60646;BME280;46462;32.608;-117.032;2023-02-24T04:07:52;99695.65;;;19.02;42.01
60646;BME280;46462;32.608;-117.032;2023-02-24T04:10:22;99693.89;;;18.71;42.74
60646;BME280;46462;32.608;-117.032;2023-02-24T04:12:51;99694.39;;;18.66;42.89
60646;BME280;46462;32.608;-117.032;2023-02-24T04:15:21;99698.42;;;18.93;42.28
60646;BME280;46462;32.608;-117.032;2023-02-24T04:17:49;99696.02;;;18.88;42.47
60646;BME280;46462;32.608;-117.032;2023-02-24T04:20:20;99695.68;;;18.87;42.45
60646;BME280;46462;32.608;-117.032;2023-02-24T04:22:49;99699.18;;;18.99;42.21
60646;BME280;46462;32.608;-117.032;2023-02-24T04:25:19;99700.24;;;19.03;41.99
60646;BME280;46462;32.608;-117.032;2023-02-24T04:27:47;99703.67;;;19.34;41.40
60646;BME280;46462;32.608;-117.032;2023-02-24T04:30:18;99706.32;;;19.50;41.16
60646;BME280;46462;32.608;-117.032;2023-02-24T04:32:47;99709.46;;;19.67;40.49
60646;BME280;46462;32.608;-117.032;2023-02-24T04:35:20;99714.83;;;19.83;40.24
60646;BME280;46462;32.608;-117.032;2023-02-24T04:37:47;99717.65;;;19.84;40.07
60646;BME280;46462;32.608;-117.032;2023-02-24T04:40:19;99719.97;;;19.76;40.15
60646;BME280;46462;32.608;-117.032;2023-02-24T04:42:48;99718.20;;;19.88;39.92
60646;BME280;46462;32.608;-117.032;2023-02-24T04:45:19;99723.59;;;19.96;39.61
60646;BME280;46462;32.608;-117.032;2023-02-24T04:47:49;99727.50;;;20.05;39.43
60646;BME280;46462;32.608;-117.032;2023-02-24T04:50:18;99730.97;;;19.95;39.57
60646;BME280;46462;32.608;-117.032;2023-02-24T04:52:48;99731.60;;;19.87;39.72
60646;BME280;46462;32.608;-117.032;2023-02-24T04:55:18;99732.37;;;19.86;39.75
60646;BME280;46462;32.608;-117.032;2023-02-24T04:57:48;99735.19;;;19.82;40.07
60646;BME280;46462;32.608;-117.032;2023-02-24T05:00:18;99736.50;;;19.75;39.91
60646;BME280;46462;32.608;-117.032;2023-02-24T05:02:48;99737.98;;;19.96;39.66
60646;BME280;46462;32.608;-117.032;2023-02-24T05:05:19;99739.65;;;20.20;39.06
60646;BME280;46462;32.608;-117.032;2023-02-24T05:07:47;99746.54;;;20.36;38.68
60646;BME280;46462;32.608;-117.032;2023-02-24T05:10:18;99747.84;;;20.49;38.38
60646;BME280;46462;32.608;-117.032;2023-02-24T05:12:48;99750.13;;;20.59;38.05
60646;BME280;46462;32.608;-117.032;2023-02-24T05:15:17;99751.35;;;20.74;37.69
60646;BME280;46462;32.608;-117.032;2023-02-24T05:17:47;99754.86;;;20.80;37.46
60646;BME280;46462;32.608;-117.032;2023-02-24T05:20:18;99758.91;;;20.86;37.30
60646;BME280;46462;32.608;-117.032;2023-02-24T05:22:49;99755.08;;;20.92;37.18
60646;BME280;46462;32.608;-117.032;2023-02-24T05:25:18;99756.87;;;20.91;37.09
60646;BME280;46462;32.608;-117.032;2023-02-24T05:27:48;99755.56;;;20.99;36.90
60646;BME280;46462;32.608;-117.032;2023-02-24T05:30:18;99758.24;;;21.01;36.90
60646;BME280;46462;32.608;-117.032;2023-02-24T05:32:48;99762.68;;;21.05;36.73
60646;BME280;46462;32.608;-117.032;2023-02-24T05:35:18;99767.14;;;21.07;36.68
60646;BME280;46462;32.608;-117.032;2023-02-24T05:37:48;99773.60;;;21.08;36.57
60646;BME280;46462;32.608;-117.032;2023-02-24T05:40:18;99772.72;;;21.09;36.51
60646;BME280;46462;32.608;-117.032;2023-02-24T05:42:48;99775.12;;;21.17;36.37
60646;BME280;46462;32.608;-117.032;2023-02-24T05:45:18;99773.17;;;21.14;36.36
60646;BME280;46462;32.608;-117.032;2023-02-24T05:47:48;99771.59;;;21.21;36.21
60646;BME280;46462;32.608;-117.032;2023-02-24T05:50:18;99768.98;;;21.22;36.13
60646;BME280;46462;32.608;-117.032;2023-02-24T05:52:48;99770.02;;;21.24;36.03
60646;BME280;46462;32.608;-117.032;2023-02-24T05:55:18;99769.40;;;21.25;36.02
60646;BME280;46462;32.608;-117.032;2023-02-24T05:57:48;99770.51;;;21.28;35.89
60646;BME280;46462;32.608;-117.032;2023-02-24T06:00:19;99771.55;;;21.30;35.83
60646;BME280;46462;32.608;-117.032;2023-02-24T06:02:48;99771.44;;;21.29;35.78
60646;BME280;46462;32.608;-117.032;2023-02-24T06:05:19;99770.63;;;21.32;35.71
60646;BME280;46462;32.608;-117.032;2023-02-24T06:07:48;99771.31;;;21.32;35.68
60646;BME280;46462;32.608;-117.032;2023-02-24T06:10:18;99770.52;;;21.32;35.65
60646;BME280;46462;32.608;-117.032;2023-02-24T06:12:48;99772.65;;;21.36;35.53
60646;BME280;46462;32.608;-117.032;2023-02-24T06:15:18;99773.08;;;21.36;35.52
60646;BME280;46462;32.608;-117.032;2023-02-24T06:17:48;99773.78;;;21.43;35.28
60646;BME280;46462;32.608;-117.032;2023-02-24T06:20:18;99771.80;;;21.37;35.37
60646;BME280;46462;32.608;-117.032;2023-02-24T06:22:48;99771.56;;;21.37;35.38
60646;BME280;46462;32.608;-117.032;2023-02-24T06:25:18;99767.30;;;21.33;35.41
60646;BME280;46462;32.608;-117.032;2023-02-24T06:27:50;99763.64;;;21.41;35.23
60646;BME280;46462;32.608;-117.032;2023-02-24T06:30:18;99762.78;;;21.39;35.21
60646;BME280;46462;32.608;-117.032;2023-02-24T06:32:49;99760.41;;;21.36;35.25
60646;BME280;46462;32.608;-117.032;2023-02-24T06:35:20;99762.72;;;21.37;35.23
60646;BME280;46462;32.608;-117.032;2023-02-24T06:37:50;99757.46;;;21.36;35.17
60646;BME280;46462;32.608;-117.032;2023-02-24T06:40:21;99754.96;;;21.33;35.25
60646;BME280;46462;32.608;-117.032;2023-02-24T06:42:52;99754.00;;;21.32;35.19
60646;BME280;46462;32.608;-117.032;2023-02-24T06:45:23;99753.47;;;21.29;35.24
60646;BME280;46462;32.608;-117.032;2023-02-24T06:47:53;99752.88;;;21.28;35.21
60646;BME280;46462;32.608;-117.032;2023-02-24T06:50:24;99752.17;;;21.31;35.14
60646;BME280;46462;32.608;-117.032;2023-02-24T06:52:55;99751.36;;;21.24;35.23
60646;BME280;46462;32.608;-117.032;2023-02-24T06:55:26;99754.61;;;21.21;35.24
60646;BME280;46462;32.608;-117.032;2023-02-24T06:57:58;99754.89;;;21.23;35.19
60646;BME280;46462;32.608;-117.032;2023-02-24T07:00:29;99752.35;;;21.23;35.15
60646;BME280;46462;32.608;-117.032;2023-02-24T07:02:58;99754.63;;;21.26;35.11
60646;BME280;46462;32.608;-117.032;2023-02-24T07:05:28;99755.41;;;21.31;34.97
60646;BME280;46462;32.608;-117.032;2023-02-24T07:07:58;99757.09;;;21.34;34.89
60646;BME280;46462;32.608;-117.032;2023-02-24T07:10:29;99756.72;;;21.39;34.77
60646;BME280;46462;32.608;-117.032;2023-02-24T07:13:00;99761.35;;;21.38;34.71
60646;BME280;46462;32.608;-117.032;2023-02-24T07:15:33;99761.78;;;21.34;34.74
60646;BME280;46462;32.608;-117.032;2023-02-24T07:18:02;99763.78;;;21.33;34.62
60646;BME280;46462;32.608;-117.032;2023-02-24T07:20:32;99762.87;;;21.36;34.54
60646;BME280;46462;32.608;-117.032;2023-02-24T07:23:03;99763.71;;;21.40;34.00
60646;BME280;46462;32.608;-117.032;2023-02-24T07:25:33;99762.44;;;21.41;34.37
60646;BME280;46462;32.608;-117.032;2023-02-24T07:28:04;99762.75;;;21.39;34.36
60646;BME280;46462;32.608;-117.032;2023-02-24T07:30:34;99763.20;;;21.32;34.07
60646;BME280;46462;32.608;-117.032;2023-02-24T07:33:06;99759.88;;;21.44;34.27
60646;BME280;46462;32.608;-117.032;2023-02-24T07:35:35;99757.79;;;21.44;34.30
60646;BME280;46462;32.608;-117.032;2023-02-24T07:38:06;99757.68;;;21.41;34.20
60646;BME280;46462;32.608;-117.032;2023-02-24T07:40:36;99753.48;;;21.40;34.25
60646;BME280;46462;32.608;-117.032;2023-02-24T07:43:06;99751.81;;;21.43;34.07
60646;BME280;46462;32.608;-117.032;2023-02-24T07:45:36;99752.27;;;21.40;34.28
60646;BME280;46462;32.608;-117.032;2023-02-24T07:48:06;99751.00;;;21.43;34.08
60646;BME280;46462;32.608;-117.032;2023-02-24T07:50:36;99751.40;;;21.42;34.11
60646;BME280;46462;32.608;-117.032;2023-02-24T07:53:06;99754.60;;;21.41;33.66
60646;BME280;46462;32.608;-117.032;2023-02-24T07:55:36;99748.33;;;21.45;33.48
60646;BME280;46462;32.608;-117.032;2023-02-24T07:58:06;99746.48;;;21.39;33.95
60646;BME280;46462;32.608;-117.032;2023-02-24T08:00:36;99742.33;;;21.28;33.98
60646;BME280;46462;32.608;-117.032;2023-02-24T08:03:06;99743.38;;;21.40;33.92
60646;BME280;46462;32.608;-117.032;2023-02-24T08:05:36;99741.82;;;21.26;33.95
60646;BME280;46462;32.608;-117.032;2023-02-24T08:08:06;99746.57;;;21.39;33.41
60646;BME280;46462;32.608;-117.032;2023-02-24T08:10:36;99745.30;;;21.40;33.41
60646;BME280;46462;32.608;-117.032;2023-02-24T08:13:06;99745.41;;;21.36;33.74
60646;BME280;46462;32.608;-117.032;2023-02-24T08:15:36;99745.63;;;21.43;33.41
60646;BME280;46462;32.608;-117.032;2023-02-24T08:18:06;99742.80;;;21.41;33.77
60646;BME280;46462;32.608;-117.032;2023-02-24T08:20:36;99738.54;;;21.34;33.32
60646;BME280;46462;32.608;-117.032;2023-02-24T08:23:06;99735.28;;;21.30;33.66
60646;BME280;46462;32.608;-117.032;2023-02-24T08:25:36;99736.72;;;21.35;33.80
60646;BME280;46462;32.608;-117.032;2023-02-24T08:28:07;99740.94;;;21.33;33.36
60646;BME280;46462;32.608;-117.032;2023-02-24T08:30:39;99741.68;;;21.25;33.36
60646;BME280;46462;32.608;-117.032;2023-02-24T08:33:08;99743.37;;;21.31;33.80
60646;BME280;46462;32.608;-117.032;2023-02-24T08:35:38;99747.12;;;21.32;33.66
60646;BME280;46462;32.608;-117.032;2023-02-24T08:38:09;99742.49;;;21.30;33.69
60646;BME280;46462;32.608;-117.032;2023-02-24T08:40:38;99740.74;;;21.29;33.64
60646;BME280;46462;32.608;-117.032;2023-02-24T08:43:08;99740.74;;;21.28;33.74
60646;BME280;46462;32.608;-117.032;2023-02-24T08:45:37;99739.75;;;21.21;33.74
60646;BME280;46462;32.608;-117.032;2023-02-24T08:48:06;99741.06;;;21.20;33.54
60646;BME280;46462;32.608;-117.032;2023-02-24T08:50:38;99740.32;;;21.27;33.66
60646;BME280;46462;32.608;-117.032;2023-02-24T08:53:07;99741.26;;;21.25;33.23
60646;BME280;46462;32.608;-117.032;2023-02-24T08:55:36;99739.67;;;21.28;33.41
60646;BME280;46462;32.608;-117.032;2023-02-24T08:58:06;99741.07;;;21.18;33.35
60646;BME280;46462;32.608;-117.032;2023-02-24T09:00:37;99741.02;;;21.06;33.52
60646;BME280;46462;32.608;-117.032;2023-02-24T09:03:07;99740.70;;;21.17;33.60
60646;BME280;46462;32.608;-117.032;2023-02-24T09:05:36;99742.78;;;21.12;33.72
60646;BME280;46462;32.608;-117.032;2023-02-24T09:08:06;99744.54;;;21.17;33.34
60646;BME280;46462;32.608;-117.032;2023-02-24T09:10:36;99743.33;;;21.21;33.63
60646;BME280;46462;32.608;-117.032;2023-02-24T09:13:06;99743.63;;;21.22;33.67
60646;BME280;46462;32.608;-117.032;2023-02-24T09:15:36;99746.90;;;21.26;33.51
60646;BME280;46462;32.608;-117.032;2023-02-24T09:18:06;99747.48;;;21.28;33.27
60646;BME280;46462;32.608;-117.032;2023-02-24T09:20:37;99744.21;;;21.23;33.63
60646;BME280;46462;32.608;-117.032;2023-02-24T09:23:06;99742.32;;;21.29;33.33
60646;BME280;46462;32.608;-117.032;2023-02-24T09:25:38;99736.39;;;21.22;33.22
60646;BME280;46462;32.608;-117.032;2023-02-24T09:28:08;99743.22;;;21.26;32.99
60646;BME280;46462;32.608;-117.032;2023-02-24T09:30:39;99737.36;;;21.17;33.55
60646;BME280;46462;32.608;-117.032;2023-02-24T09:33:11;99730.08;;;21.26;33.08
60646;BME280;46462;32.608;-117.032;2023-02-24T09:35:36;99732.22;;;21.36;33.28
60646;BME280;46462;32.608;-117.032;2023-02-24T09:38:07;99724.63;;;21.28;33.12
60646;BME280;46462;32.608;-117.032;2023-02-24T09:40:38;99719.74;;;21.29;33.10
60646;BME280;46462;32.608;-117.032;2023-02-24T09:43:11;99716.10;;;21.26;33.25
60646;BME280;46462;32.608;-117.032;2023-02-24T09:45:37;99713.47;;;21.28;33.34
60646;BME280;46462;32.608;-117.032;2023-02-24T09:48:14;99710.72;;;21.24;33.17
60646;BME280;46462;32.608;-117.032;2023-02-24T09:50:38;99709.24;;;21.00;33.41
60646;BME280;46462;32.608;-117.032;2023-02-24T09:53:11;99710.13;;;21.10;33.14
60646;BME280;46462;32.608;-117.032;2023-02-24T09:55:41;99703.78;;;21.16;33.66
60646;BME280;46462;32.608;-117.032;2023-02-24T09:58:13;99700.19;;;20.90;33.73
60646;BME280;46462;32.608;-117.032;2023-02-24T10:00:38;99701.30;;;21.00;33.79
60646;BME280;46462;32.608;-117.032;2023-02-24T10:03:13;99699.32;;;21.10;33.48
60646;BME280;46462;32.608;-117.032;2023-02-24T10:05:39;99693.78;;;21.19;33.31
60646;BME280;46462;32.608;-117.032;2023-02-24T10:08:15;99692.17;;;21.06;33.27
60646;BME280;46462;32.608;-117.032;2023-02-24T10:10:37;99682.97;;;21.11;33.34
60646;BME280;46462;32.608;-117.032;2023-02-24T10:13:11;99680.70;;;21.12;33.82
60646;BME280;46462;32.608;-117.032;2023-02-24T10:15:37;99680.86;;;21.11;33.71
60646;BME280;46462;32.608;-117.032;2023-02-24T10:20:40;99672.25;;;21.16;33.11
60646;BME280;46462;32.608;-117.032;2023-02-24T10:23:13;99670.85;;;21.05;33.59
60646;BME280;46462;32.608;-117.032;2023-02-24T10:25:44;99664.96;;;20.92;33.60
60646;BME280;46462;32.608;-117.032;2023-02-24T10:28:18;99669.23;;;21.12;33.53
60646;BME280;46462;32.608;-117.032;2023-02-24T10:30:46;99664.01;;;21.18;33.31
60646;BME280;46462;32.608;-117.032;2023-02-24T10:35:38;99666.44;;;21.10;33.50
60646;BME280;46462;32.608;-117.032;2023-02-24T10:38:08;99669.52;;;21.15;33.30
60646;BME280;46462;32.608;-117.032;2023-02-24T10:40:43;99670.97;;;21.18;33.20
60646;BME280;46462;32.608;-117.032;2023-02-24T10:43:08;99670.17;;;21.13;33.26
60646;BME280;46462;32.608;-117.032;2023-02-24T10:45:39;99670.82;;;21.06;33.35
60646;BME280;46462;32.608;-117.032;2023-02-24T10:48:08;99673.56;;;21.08;33.27
60646;BME280;46462;32.608;-117.032;2023-02-24T10:50:42;99676.56;;;21.06;33.56
60646;BME280;46462;32.608;-117.032;2023-02-24T10:53:12;99673.14;;;20.88;33.78
60646;BME280;46462;32.608;-117.032;2023-02-24T10:55:40;99671.08;;;20.91;33.64
60646;BME280;46462;32.608;-117.032;2023-02-24T10:58:15;99676.97;;;20.98;33.77
60646;BME280;46462;32.608;-117.032;2023-02-24T11:00:41;99673.04;;;21.00;33.37
60646;BME280;46462;32.608;-117.032;2023-02-24T11:03:10;99669.18;;;21.00;33.48
60646;BME280;46462;32.608;-117.032;2023-02-24T11:05:42;99669.33;;;21.05;33.51
60646;BME280;46462;32.608;-117.032;2023-02-24T11:08:13;99669.35;;;21.12;33.31
60646;BME280;46462;32.608;-117.032;2023-02-24T11:10:41;99671.64;;;21.19;33.24
60646;BME280;46462;32.608;-117.032;2023-02-24T11:13:15;99669.37;;;21.21;33.23
60646;BME280;46462;32.608;-117.032;2023-02-24T11:15:44;99669.85;;;21.12;33.15
60646;BME280;46462;32.608;-117.032;2023-02-24T11:18:17;99665.65;;;21.01;33.35
60646;BME280;46462;32.608;-117.032;2023-02-24T11:20:46;99665.17;;;21.04;33.31
60646;BME280;46462;32.608;-117.032;2023-02-24T11:23:18;99663.45;;;20.92;33.49
60646;BME280;46462;32.608;-117.032;2023-02-24T11:25:48;99663.44;;;21.09;33.33
60646;BME280;46462;32.608;-117.032;2023-02-24T11:30:51;99659.01;;;21.11;33.24
60646;BME280;46462;32.608;-117.032;2023-02-24T11:33:27;99655.88;;;21.10;33.23
60646;BME280;46462;32.608;-117.032;2023-02-24T11:35:55;99654.57;;;21.06;33.27
60646;BME280;46462;32.608;-117.032;2023-02-24T11:38:27;99652.84;;;21.14;33.34
60646;BME280;46462;32.608;-117.032;2023-02-24T11:40:55;99653.08;;;21.09;33.49
60646;BME280;46462;32.608;-117.032;2023-02-24T11:43:25;99656.04;;;21.11;33.39
60646;BME280;46462;32.608;-117.032;2023-02-24T11:45:56;99660.30;;;21.09;33.29
60646;BME280;46462;32.608;-117.032;2023-02-24T11:48:27;99661.20;;;21.14;33.33
60646;BME280;46462;32.608;-117.032;2023-02-24T11:50:57;99660.55;;;21.10;33.36
60646;BME280;46462;32.608;-117.032;2023-02-24T11:53:28;99662.36;;;21.09;33.21
60646;BME280;46462;32.608;-117.032;2023-02-24T11:56:00;99663.31;;;21.07;33.57
60646;BME280;46462;32.608;-117.032;2023-02-24T11:58:33;99661.66;;;21.02;33.62
60646;BME280;46462;32.608;-117.032;2023-02-24T12:01:02;99665.25;;;21.01;33.58
60646;BME280;46462;32.608;-117.032;2023-02-24T12:03:34;99663.63;;;21.07;33.45
60646;BME280;46462;32.608;-117.032;2023-02-24T12:06:07;99667.51;;;21.05;33.55
60646;BME280;46462;32.608;-117.032;2023-02-24T12:08:33;99666.47;;;21.11;33.26
60646;BME280;46462;32.608;-117.032;2023-02-24T12:11:04;99667.97;;;21.13;33.51
60646;BME280;46462;32.608;-117.032;2023-02-24T12:13:37;99668.33;;;21.04;33.42
60646;BME280;46462;32.608;-117.032;2023-02-24T12:16:05;99675.70;;;21.14;33.27
60646;BME280;46462;32.608;-117.032;2023-02-24T12:18:33;99676.99;;;21.11;33.50
60646;BME280;46462;32.608;-117.032;2023-02-24T12:21:05;99680.19;;;21.08;33.40
60646;BME280;46462;32.608;-117.032;2023-02-24T12:23:33;99681.64;;;20.98;33.38
60646;BME280;46462;32.608;-117.032;2023-02-24T12:26:11;99680.21;;;20.97;33.65
60646;BME280;46462;32.608;-117.032;2023-02-24T12:28:43;99681.71;;;21.07;33.46
60646;BME280;46462;32.608;-117.032;2023-02-24T12:31:08;99689.01;;;21.07;33.49
60646;BME280;46462;32.608;-117.032;2023-02-24T12:33:45;99689.02;;;20.97;33.66
60646;BME280;46462;32.608;-117.032;2023-02-24T12:36:11;99688.17;;;20.99;33.67
60646;BME280;46462;32.608;-117.032;2023-02-24T12:38:42;99689.79;;;21.02;33.59
60646;BME280;46462;32.608;-117.032;2023-02-24T12:41:15;99692.59;;;21.03;33.47
60646;BME280;46462;32.608;-117.032;2023-02-24T12:43:41;99693.61;;;21.05;33.43
60646;BME280;46462;32.608;-117.032;2023-02-24T12:46:12;99695.67;;;20.90;33.59
60646;BME280;46462;32.608;-117.032;2023-02-24T12:51:11;99700.30;;;20.88;33.72
60646;BME280;46462;32.608;-117.032;2023-02-24T12:53:43;99697.24;;;20.89;33.73
60646;BME280;46462;32.608;-117.032;2023-02-24T12:56:16;99698.74;;;20.82;33.84
60646;BME280;46462;32.608;-117.032;2023-02-24T12:58:43;99700.57;;;20.84;33.77
60646;BME280;46462;32.608;-117.032;2023-02-24T13:01:15;99703.06;;;20.82;33.68
60646;BME280;46462;32.608;-117.032;2023-02-24T13:03:53;99701.04;;;20.90;33.86
60646;BME280;46462;32.608;-117.032;2023-02-24T13:06:17;99702.35;;;20.93;33.71